Bremen Airport EDDW

Flugplatz Daten

Name: Bremen Airport

Ident: EDDW

Lat: 53,04750061

Long: 8,786669731

Platzhöhe: 14 ft

IataCode: BRE

City: Bremen

Metar

2022/08/14 06:20
EDDW 140620Z AUTO 11006KT CAVOK 23/16 Q1012 NOSIG

Taf

2022/08/14 06:27
TAF EDDW 140500Z 1406/1506 08005KT CAVOK
BECMG 1408/1410 12010KT PROB40
TEMPO 1412/1414 12015G25KT PROB30
TEMPO 1414/1416 13015G25KT TSRA SCT050CB
BECMG 1417/1419 09005KT
Gewünschte Webcam nicht vorhanden? Dann fügen Sie eine hinzu. Sie wird dann so schnell wie möglich freigeschaltet
Url: Title: